Time;durP1;ratioP1;P1;durP2;ratioP2;P2;SDS_P1;SDS_P2;PMS_P1;PMS_P2;Temp;Humidity;BMP_temperature;BMP_pressure;BME280_temperature;BME280_humidity;BME280_pressure;Samples;Min_cycle;Max_cycle;Signal;HPM_P1;HPM_P2
2023/04/26 00:01:28;;;;;;;7.17;3.73;;;;;;;;;;5047188;28;20205;-68
2023/04/26 00:03:55;;;;;;;7.87;3.80;;;;;;;;;;5042326;28;20178;-68
2023/04/26 00:06:20;;;;;;;8.03;3.13;;;;;;;;;;5049286;28;20515;-68
2023/04/26 00:08:45;;;;;;;14.17;3.77;;;;;;;;;;5035653;28;20440;-69
2023/04/26 00:11:11;;;;;;;15.67;4.17;;;;;;;;;;5048342;28;20217;-69
2023/04/26 00:13:37;;;;;;;10.90;3.60;;;;;;;;;;5051873;28;20193;-69
2023/04/26 00:16:03;;;;;;;11.93;3.83;;;;;;;;;;5045931;28;20193;-69
2023/04/26 00:18:29;;;;;;;10.40;3.90;;;;;;;;;;5040271;28;20213;-69
2023/04/26 00:20:54;;;;;;;8.50;3.57;;;;;;;;;;5041145;28;20224;-68
2023/04/26 00:23:20;;;;;;;8.20;3.87;;;;;;;;;;5054823;28;20186;-69
2023/04/26 00:25:45;;;;;;;8.73;4.00;;;;;;;;;;5041005;28;20221;-69
2023/04/26 00:28:10;;;;;;;11.40;3.87;;;;;;;;;;5049823;28;20676;-69
2023/04/26 00:30:40;;;;;;;12.60;3.93;;;;;;;;;;5050202;28;20224;-68
2023/04/26 00:33:05;;;;;;;14.07;4.10;;;;;;;;;;5044121;28;20189;-69
2023/04/26 00:35:30;;;;;;;15.17;4.20;;;;;;;;;;5048980;28;20269;-69
2023/04/26 00:37:56;;;;;;;14.23;4.53;;;;;;;;;;5041373;28;20350;-69
2023/04/26 00:40:21;;;;;;;12.33;4.10;;;;;;;;;;5031906;28;20194;-69
2023/04/26 00:42:46;;;;;;;11.03;4.43;;;;;;;;;;5040275;28;20177;-70
2023/04/26 00:45:12;;;;;;;9.93;3.90;;;;;;;;;;5032646;28;20217;-69
2023/04/26 00:47:37;;;;;;;11.87;3.67;;;;;;;;;;5036683;28;20595;-70
2023/04/26 00:50:03;;;;;;;10.90;3.87;;;;;;;;;;5034285;28;20218;-69
2023/04/26 00:52:29;;;;;;;9.00;3.80;;;;;;;;;;5029590;28;20212;-69
2023/04/26 00:54:55;;;;;;;7.43;3.80;;;;;;;;;;5048531;28;20537;-69
2023/04/26 00:57:21;;;;;;;13.60;4.63;;;;;;;;;;5058385;28;20637;-69
2023/04/26 00:59:46;;;;;;;18.13;4.73;;;;;;;;;;5037562;28;20260;-69
2023/04/26 01:02:12;;;;;;;9.70;4.07;;;;;;;;;;5038983;28;20189;-70
2023/04/26 01:04:38;;;;;;;7.63;4.13;;;;;;;;;;5045720;28;20189;-69
2023/04/26 01:07:04;;;;;;;12.67;4.43;;;;;;;;;;5032571;28;20182;-69
2023/04/26 01:09:30;;;;;;;10.87;3.87;;;;;;;;;;5049385;28;20186;-69
2023/04/26 01:11:57;;;;;;;11.80;4.00;;;;;;;;;;5048217;28;20675;-69
2023/04/26 01:14:23;;;;;;;13.93;3.80;;;;;;;;;;5042676;28;20259;-69
2023/04/26 01:16:49;;;;;;;9.87;3.80;;;;;;;;;;5044295;28;20191;-69
2023/04/26 01:19:15;;;;;;;15.27;4.20;;;;;;;;;;5043716;28;20277;-69
2023/04/26 01:21:41;;;;;;;9.60;4.30;;;;;;;;;;5034949;28;20705;-69
2023/04/26 01:24:12;;;;;;;10.47;4.37;;;;;;;;;;5044628;28;20182;-69
2023/04/26 01:26:45;;;;;;;14.97;4.20;;;;;;;;;;5033800;28;20234;-69
2023/04/26 01:29:18;;;;;;;9.50;4.10;;;;;;;;;;5037812;28;20320;-69
2023/04/26 01:31:44;;;;;;;8.20;3.83;;;;;;;;;;5043353;28;20197;-69
2023/04/26 01:34:10;;;;;;;8.90;3.70;;;;;;;;;;5043795;28;20185;-69
2023/04/26 01:36:35;;;;;;;10.40;4.27;;;;;;;;;;5036508;28;20197;-69
2023/04/26 01:39:01;;;;;;;8.60;4.17;;;;;;;;;;5029622;28;20182;-69
2023/04/26 01:41:27;;;;;;;10.20;4.40;;;;;;;;;;5045623;28;20272;-68
2023/04/26 01:43:52;;;;;;;11.67;4.27;;;;;;;;;;5040649;28;20198;-68
2023/04/26 01:46:17;;;;;;;10.03;3.87;;;;;;;;;;5040239;28;20224;-69
2023/04/26 01:48:43;;;;;;;10.33;5.17;;;;;;;;;;5047542;28;20201;-69
2023/04/26 01:51:09;;;;;;;7.77;3.80;;;;;;;;;;5044729;28;20687;-69
2023/04/26 01:53:35;;;;;;;12.03;4.50;;;;;;;;;;5033826;28;20215;-69
2023/04/26 01:56:01;;;;;;;8.70;3.97;;;;;;;;;;5043971;28;20190;-69
2023/04/26 01:58:28;;;;;;;12.97;4.40;;;;;;;;;;5037942;28;20260;-69
2023/04/26 02:00:53;;;;;;;14.93;4.40;;;;;;;;;;5041774;28;20210;-69
2023/04/26 02:03:18;;;;;;;12.47;4.07;;;;;;;;;;5039734;28;20204;-69
2023/04/26 02:05:44;;;;;;;11.33;3.90;;;;;;;;;;5042652;28;20206;-69
2023/04/26 02:08:09;;;;;;;9.70;3.83;;;;;;;;;;5047304;28;20274;-69
2023/04/26 02:10:35;;;;;;;15.60;4.77;;;;;;;;;;5043217;28;20261;-69
2023/04/26 02:13:01;;;;;;;14.37;4.50;;;;;;;;;;5036441;28;20688;-69
2023/04/26 02:15:26;;;;;;;11.93;4.00;;;;;;;;;;5045593;28;20216;-69
2023/04/26 02:17:52;;;;;;;12.67;4.13;;;;;;;;;;5046949;28;20228;-69
2023/04/26 02:20:18;;;;;;;13.73;4.37;;;;;;;;;;5047821;28;20201;-68
2023/04/26 02:22:43;;;;;;;16.83;4.70;;;;;;;;;;5037263;28;20279;-69
2023/04/26 02:25:10;;;;;;;8.73;4.13;;;;;;;;;;5037067;28;20735;-68
2023/04/26 02:27:36;;;;;;;10.23;4.03;;;;;;;;;;5047551;28;20212;-68
2023/04/26 02:30:02;;;;;;;9.37;3.90;;;;;;;;;;5047373;28;20189;-68
2023/04/26 02:32:27;;;;;;;11.07;4.30;;;;;;;;;;5050547;28;20272;-68
2023/04/26 02:34:53;;;;;;;8.60;4.00;;;;;;;;;;5045826;28;20689;-68
2023/04/26 02:37:18;;;;;;;11.23;4.47;;;;;;;;;;5050780;28;20216;-68
2023/04/26 02:39:43;;;;;;;13.33;3.93;;;;;;;;;;5051874;28;20194;-68
2023/04/26 02:42:09;;;;;;;14.73;4.37;;;;;;;;;;5050733;28;20284;-68
2023/04/26 02:44:35;;;;;;;9.50;4.90;;;;;;;;;;5057446;28;20247;-68
2023/04/26 02:47:00;;;;;;;12.50;4.30;;;;;;;;;;5057872;28;20220;-69
2023/04/26 02:49:26;;;;;;;12.27;4.30;;;;;;;;;;5046843;28;20681;-69
2023/04/26 02:51:52;;;;;;;11.63;3.90;;;;;;;;;;5051363;28;20185;-69
2023/04/26 02:54:17;;;;;;;10.77;4.30;;;;;;;;;;5050143;28;20488;-69
2023/04/26 02:56:42;;;;;;;10.97;4.10;;;;;;;;;;5044238;28;20188;-69
2023/04/26 02:59:08;;;;;;;11.90;4.43;;;;;;;;;;5049220;28;20339;-69
2023/04/26 03:01:33;;;;;;;17.53;4.23;;;;;;;;;;5043967;28;20201;-69
2023/04/26 03:03:58;;;;;;;11.57;4.10;;;;;;;;;;5048809;28;20268;-71
2023/04/26 03:06:24;;;;;;;9.43;4.83;;;;;;;;;;5045290;28;20216;-69
2023/04/26 03:08:49;;;;;;;9.57;4.20;;;;;;;;;;5037234;28;20189;-69
2023/04/26 03:11:14;;;;;;;13.60;4.53;;;;;;;;;;5049300;28;20190;-69
2023/04/26 03:13:40;;;;;;;9.87;4.60;;;;;;;;;;5037490;28;20372;-70
2023/04/26 03:16:06;;;;;;;9.67;4.67;;;;;;;;;;5035293;28;20231;-70
2023/04/26 03:18:31;;;;;;;9.20;4.97;;;;;;;;;;5051182;28;20224;-69
2023/04/26 03:20:56;;;;;;;12.93;4.53;;;;;;;;;;5038523;28;20216;-69
2023/04/26 03:23:24;;;;;;;9.83;4.23;;;;;;;;;;5041139;28;20443;-69
2023/04/26 03:25:50;;;;;;;8.80;4.40;;;;;;;;;;5046064;28;20198;-69
2023/04/26 03:28:16;;;;;;;10.57;4.40;;;;;;;;;;5050667;28;20178;-69
2023/04/26 03:30:41;;;;;;;11.50;4.10;;;;;;;;;;5050728;28;20634;-70
2023/04/26 03:33:06;;;;;;;13.53;4.13;;;;;;;;;;5048873;28;20208;-69
2023/04/26 03:35:32;;;;;;;12.73;4.67;;;;;;;;;;5038674;28;20190;-70
2023/04/26 03:37:57;;;;;;;14.27;4.63;;;;;;;;;;5036637;28;20239;-69
2023/04/26 03:40:22;;;;;;;14.43;5.00;;;;;;;;;;5043012;28;20721;-69
2023/04/26 03:42:48;;;;;;;8.07;4.07;;;;;;;;;;5049678;28;20197;-69
2023/04/26 03:45:13;;;;;;;8.20;3.97;;;;;;;;;;5049984;28;20995;-69
2023/04/26 03:47:39;;;;;;;8.03;4.20;;;;;;;;;;5050477;28;20312;-69
2023/04/26 03:50:05;;;;;;;8.33;4.13;;;;;;;;;;5040461;28;20190;-69
2023/04/26 03:52:31;;;;;;;13.60;4.50;;;;;;;;;;5048818;28;20533;-69
2023/04/26 03:54:56;;;;;;;12.23;5.00;;;;;;;;;;5045773;28;20653;-69
2023/04/26 03:57:21;;;;;;;13.07;4.73;;;;;;;;;;5054025;28;20195;-69
2023/04/26 03:59:47;;;;;;;11.27;4.27;;;;;;;;;;5044144;28;20203;-69
2023/04/26 04:02:12;;;;;;;9.13;4.30;;;;;;;;;;5049723;28;20757;-70
2023/04/26 04:04:38;;;;;;;10.07;4.70;;;;;;;;;;5037911;28;20227;-69
2023/04/26 04:07:03;;;;;;;12.90;5.10;;;;;;;;;;5047345;28;20292;-69
2023/04/26 04:09:28;;;;;;;9.90;4.23;;;;;;;;;;5044039;28;20618;-70
2023/04/26 04:11:54;;;;;;;11.17;4.20;;;;;;;;;;5049151;28;20274;-69
2023/04/26 04:14:19;;;;;;;10.03;5.20;;;;;;;;;;5042223;28;20361;-69
2023/04/26 04:16:45;;;;;;;8.93;4.17;;;;;;;;;;5046858;28;20566;-70
2023/04/26 04:19:10;;;;;;;12.30;5.00;;;;;;;;;;5043269;28;20278;-69
2023/04/26 04:21:36;;;;;;;10.83;4.33;;;;;;;;;;5048527;28;20225;-69
2023/04/26 04:24:01;;;;;;;11.93;4.67;;;;;;;;;;5046877;28;20556;-69
2023/04/26 04:26:27;;;;;;;14.10;4.70;;;;;;;;;;5045425;28;20205;-69
2023/04/26 04:28:54;;;;;;;9.97;4.93;;;;;;;;;;5041119;28;20181;-69
2023/04/26 04:31:20;;;;;;;14.43;5.27;;;;;;;;;;5047050;28;20177;-69
2023/04/26 04:33:45;;;;;;;10.10;4.80;;;;;;;;;;5040242;28;20595;-69
2023/04/26 04:36:12;;;;;;;11.57;4.77;;;;;;;;;;5043916;28;20237;-69
2023/04/26 04:38:37;;;;;;;11.60;4.80;;;;;;;;;;5052304;28;20716;-69
2023/04/26 04:41:03;;;;;;;9.47;5.07;;;;;;;;;;5048138;28;20185;-69
2023/04/26 04:43:28;;;;;;;14.80;5.27;;;;;;;;;;5047010;28;20296;-69
2023/04/26 04:45:54;;;;;;;8.60;5.07;;;;;;;;;;5042793;28;20292;-69
2023/04/26 04:48:20;;;;;;;11.73;5.40;;;;;;;;;;5045246;28;20185;-69
2023/04/26 04:50:45;;;;;;;10.37;5.87;;;;;;;;;;5045515;28;20189;-69
2023/04/26 04:53:14;;;;;;;14.17;5.20;;;;;;;;;;5045522;28;20251;-69
2023/04/26 04:55:39;;;;;;;11.23;5.43;;;;;;;;;;5043453;28;20645;-69
2023/04/26 04:58:05;;;;;;;16.40;5.40;;;;;;;;;;5045697;28;20221;-69
2023/04/26 05:00:31;;;;;;;11.57;4.77;;;;;;;;;;5044797;28;20256;-69
2023/04/26 05:02:56;;;;;;;11.03;4.10;;;;;;;;;;5048346;28;20196;-69
2023/04/26 05:05:22;;;;;;;8.67;4.17;;;;;;;;;;5045409;28;20296;-69
2023/04/26 05:07:47;;;;;;;10.17;3.67;;;;;;;;;;5043284;28;20223;-70
2023/04/26 05:10:13;;;;;;;7.90;3.47;;;;;;;;;;5045432;28;20246;-70
2023/04/26 05:12:38;;;;;;;9.20;4.13;;;;;;;;;;5046549;28;20641;-71
2023/04/26 05:15:04;;;;;;;9.03;3.20;;;;;;;;;;5045136;28;20527;-71
2023/04/26 05:17:31;;;;;;;9.27;2.83;;;;;;;;;;5042060;28;20252;-72
2023/04/26 05:19:57;;;;;;;4.53;3.10;;;;;;;;;;5045394;28;20236;-70
2023/04/26 05:22:22;;;;;;;6.97;3.10;;;;;;;;;;5045104;28;20181;-70
2023/04/26 05:24:48;;;;;;;6.53;2.97;;;;;;;;;;5046038;28;20566;-70
2023/04/26 05:27:13;;;;;;;5.40;2.63;;;;;;;;;;5044523;28;20197;-69
2023/04/26 05:29:39;;;;;;;9.57;3.03;;;;;;;;;;5041831;28;20312;-70
2023/04/26 05:32:05;;;;;;;9.40;3.10;;;;;;;;;;5045240;28;20190;-70
2023/04/26 05:34:30;;;;;;;3.60;2.30;;;;;;;;;;5044224;28;20636;-70
2023/04/26 05:36:56;;;;;;;6.23;2.30;;;;;;;;;;5036282;28;20202;-70
2023/04/26 05:39:21;;;;;;;9.43;2.77;;;;;;;;;;5043338;28;20279;-70
2023/04/26 05:41:46;;;;;;;7.97;2.87;;;;;;;;;;5046422;28;20188;-70
2023/04/26 05:44:13;;;;;;;8.03;2.50;;;;;;;;;;5047499;28;20726;-70
2023/04/26 05:46:39;;;;;;;6.37;2.43;;;;;;;;;;5038752;28;20263;-70
2023/04/26 05:49:04;;;;;;;5.07;2.20;;;;;;;;;;5036394;28;20197;-71
2023/04/26 05:51:29;;;;;;;8.73;3.13;;;;;;;;;;5042372;28;20205;-69
2023/04/26 05:53:56;;;;;;;9.10;3.17;;;;;;;;;;5042522;28;20764;-70
2023/04/26 05:56:22;;;;;;;7.87;3.03;;;;;;;;;;5038168;28;20203;-70
2023/04/26 05:58:48;;;;;;;9.67;2.40;;;;;;;;;;5042534;28;20523;-70
2023/04/26 06:01:13;;;;;;;7.37;2.23;;;;;;;;;;5042885;28;20620;-70
2023/04/26 06:03:39;;;;;;;6.10;2.60;;;;;;;;;;5041596;28;20185;-70
2023/04/26 06:06:04;;;;;;;7.27;2.27;;;;;;;;;;5048668;28;20201;-70
2023/04/26 06:08:30;;;;;;;6.47;2.27;;;;;;;;;;5045549;28;20200;-69
2023/04/26 06:10:55;;;;;;;7.60;2.50;;;;;;;;;;5035823;28;20190;-69
2023/04/26 06:13:20;;;;;;;6.13;2.47;;;;;;;;;;5046652;28;20756;-70
2023/04/26 06:15:46;;;;;;;9.80;2.60;;;;;;;;;;5035247;28;20197;-70
2023/04/26 06:18:11;;;;;;;5.37;2.00;;;;;;;;;;5040917;28;20228;-70
2023/04/26 06:20:36;;;;;;;6.38;2.35;;;;;;;;;;4339475;28;10000805;-70
2023/04/26 06:23:02;;;;;;;4.57;2.30;;;;;;;;;;5037829;28;20260;-71
2023/04/26 06:25:27;;;;;;;4.88;1.75;;;;;;;;;;5034270;28;20593;-70
2023/04/26 06:27:53;;;;;;;12.93;2.53;;;;;;;;;;5034015;28;20182;-71
2023/04/26 06:30:19;;;;;;;3.45;1.60;;;;;;;;;;5038124;28;20538;-70
2023/04/26 06:32:44;;;;;;;6.10;1.30;;;;;;;;;;5036680;28;20602;-70
2023/04/26 06:35:10;;;;;;;2.38;1.35;;;;;;;;;;5036714;28;20224;-70
2023/04/26 06:37:36;;;;;;;3.47;1.35;;;;;;;;;;5042750;28;20190;-70
2023/04/26 06:40:02;;;;;;;8.40;1.30;;;;;;;;;;5042176;28;20189;-70
2023/04/26 06:42:27;;;;;;;4.78;1.30;;;;;;;;;;5035108;28;20274;-70
2023/04/26 06:44:53;;;;;;;6.75;1.55;;;;;;;;;;5041065;28;20272;-69
2023/04/26 06:47:18;;;;;;;5.38;1.50;;;;;;;;;;5042435;28;20205;-70
2023/04/26 06:49:44;;;;;;;3.58;1.45;;;;;;;;;;5034359;28;20676;-70
2023/04/26 06:52:09;;;;;;;5.55;1.52;;;;;;;;;;5037381;28;20185;-70
2023/04/26 06:54:35;;;;;;;7.30;1.58;;;;;;;;;;5040542;28;20197;-70
2023/04/26 06:57:01;;;;;;;6.80;2.20;;;;;;;;;;5031962;28;20186;-70
2023/04/26 06:59:26;;;;;;;6.45;2.30;;;;;;;;;;5029306;28;20292;-70
2023/04/26 07:01:52;;;;;;;7.32;2.38;;;;;;;;;;5034480;28;20275;-70
2023/04/26 07:04:19;;;;;;;7.63;2.65;;;;;;;;;;5034244;28;20208;-70
2023/04/26 07:06:44;;;;;;;5.97;2.67;;;;;;;;;;5028620;28;20634;-69
2023/04/26 07:09:11;;;;;;;7.63;3.05;;;;;;;;;;5031766;28;20204;-69
2023/04/26 07:11:37;;;;;;;10.52;3.50;;;;;;;;;;5039549;28;20182;-69
2023/04/26 07:14:03;;;;;;;10.55;3.63;;;;;;;;;;5027393;28;20197;-70
2023/04/26 07:16:29;;;;;;;6.85;3.20;;;;;;;;;;5029344;28;20182;-70
2023/04/26 07:18:58;;;;;;;12.63;3.92;;;;;;;;;;5047179;28;20193;-69
2023/04/26 07:21:24;;;;;;;10.60;4.15;;;;;;;;;;5036752;28;20190;-69
2023/04/26 07:23:54;;;;;;;11.93;4.25;;;;;;;;;;5037206;28;20190;-69
2023/04/26 07:26:20;;;;;;;12.35;4.40;;;;;;;;;;5044597;28;20240;-70
2023/04/26 07:28:45;;;;;;;6.82;3.47;;;;;;;;;;5041517;28;20186;-71
2023/04/26 07:31:11;;;;;;;13.90;3.15;;;;;;;;;;5034111;28;20210;-69
2023/04/26 07:33:36;;;;;;;14.05;3.83;;;;;;;;;;5035547;28;20194;-69
2023/04/26 07:36:02;;;;;;;13.13;3.38;;;;;;;;;;5046170;28;20170;-69
2023/04/26 07:38:27;;;;;;;7.82;2.90;;;;;;;;;;5032953;28;20209;-69
2023/04/26 07:40:54;;;;;;;11.02;3.63;;;;;;;;;;5039615;28;20452;-69
2023/04/26 07:43:20;;;;;;;9.80;2.63;;;;;;;;;;5036970;28;20882;-69
2023/04/26 07:45:45;;;;;;;5.60;2.88;;;;;;;;;;5040753;28;20233;-69
2023/04/26 07:48:11;;;;;;;10.25;2.70;;;;;;;;;;5042625;28;20599;-68
2023/04/26 07:50:36;;;;;;;8.02;2.88;;;;;;;;;;5029567;28;20248;-68
2023/04/26 07:53:02;;;;;;;6.78;2.65;;;;;;;;;;5039585;28;20252;-69
2023/04/26 07:55:27;;;;;;;10.63;2.55;;;;;;;;;;5041761;28;20324;-69
2023/04/26 07:57:53;;;;;;;3.60;2.30;;;;;;;;;;5041224;28;20283;-69
2023/04/26 08:00:18;;;;;;;9.35;2.40;;;;;;;;;;5044633;28;20350;-69
2023/04/26 08:02:47;;;;;;;6.53;2.22;;;;;;;;;;5037140;28;20177;-70
2023/04/26 08:05:14;;;;;;;3.33;1.90;;;;;;;;;;5040079;28;20685;-69
2023/04/26 08:07:40;;;;;;;3.42;1.83;;;;;;;;;;5034559;28;20178;-68
2023/04/26 08:10:06;;;;;;;5.10;1.90;;;;;;;;;;5039574;28;20186;-69
2023/04/26 08:12:36;;;;;;;5.20;1.70;;;;;;;;;;5048111;28;20482;-68
2023/04/26 08:15:03;;;;;;;6.78;2.10;;;;;;;;;;5046190;28;20208;-68
2023/04/26 08:17:29;;;;;;;4.50;1.60;;;;;;;;;;5042325;28;20175;-68
2023/04/26 08:19:54;;;;;;;5.40;1.90;;;;;;;;;;5043146;28;20258;-69
2023/04/26 08:22:20;;;;;;;5.03;2.22;;;;;;;;;;5039453;28;20547;-68
2023/04/26 08:24:49;;;;;;;6.45;2.25;;;;;;;;;;5049368;28;20217;-69
2023/04/26 08:27:18;;;;;;;5.85;2.00;;;;;;;;;;5042564;28;20217;-69
2023/04/26 08:29:43;;;;;;;3.65;1.45;;;;;;;;;;5044289;28;20198;-69
2023/04/26 08:32:09;;;;;;;6.88;1.60;;;;;;;;;;5046953;28;20208;-69
2023/04/26 08:34:34;;;;;;;7.43;1.70;;;;;;;;;;5044558;28;20193;-70
2023/04/26 08:36:59;;;;;;;4.00;1.48;;;;;;;;;;5041087;28;20190;-68
2023/04/26 08:39:25;;;;;;;4.65;1.60;;;;;;;;;;5038209;28;20718;-69
2023/04/26 08:41:53;;;;;;;6.10;1.80;;;;;;;;;;5040398;28;20578;-69
2023/04/26 08:44:25;;;;;;;8.65;1.88;;;;;;;;;;5038836;28;20180;-69
2023/04/26 08:47:08;;;;;;;5.93;1.58;;;;;;;;;;5036889;28;20685;-69
2023/04/26 08:49:46;;;;;;;3.03;1.48;;;;;;;;;;5043987;28;20273;-69
2023/04/26 08:52:13;;;;;;;10.32;2.22;;;;;;;;;;5044595;28;20185;-69
2023/04/26 08:54:40;;;;;;;7.43;1.80;;;;;;;;;;5047971;28;20193;-69
2023/04/26 08:57:07;;;;;;;6.35;1.88;;;;;;;;;;5039054;28;20208;-69
2023/04/26 08:59:35;;;;;;;3.80;1.38;;;;;;;;;;5043076;28;20535;-68
2023/04/26 09:02:02;;;;;;;10.25;2.17;;;;;;;;;;5043909;28;20209;-68
2023/04/26 09:04:27;;;;;;;3.95;1.48;;;;;;;;;;5050774;28;20189;-68
2023/04/26 09:06:59;;;;;;;5.72;2.00;;;;;;;;;;5042719;28;20203;-69
2023/04/26 09:09:33;;;;;;;6.18;1.55;;;;;;;;;;5049375;28;20338;-70
2023/04/26 09:12:00;;;;;;;9.57;2.13;;;;;;;;;;5044206;28;20726;-70
2023/04/26 09:14:26;;;;;;;4.63;1.48;;;;;;;;;;5041566;28;20503;-70
2023/04/26 09:16:53;;;;;;;8.90;1.42;;;;;;;;;;5048029;28;20637;-69
2023/04/26 09:19:50;;;;;;;4.00;1.33;;;;;;;;;;5035888;28;20642;-70
2023/04/26 09:22:32;;;;;;;6.28;1.42;;;;;;;;;;5052616;28;20209;-69
2023/04/26 09:24:58;;;;;;;3.58;1.10;;;;;;;;;;5042192;28;20219;-69
2023/04/26 09:27:42;;;;;;;9.73;1.63;;;;;;;;;;5050791;28;20272;-69
2023/04/26 09:30:09;;;;;;;9.07;1.55;;;;;;;;;;5040116;28;20275;-69
2023/04/26 09:32:56;;;;;;;8.95;1.38;;;;;;;;;;5038949;28;20527;-68
2023/04/26 09:35:25;;;;;;;7.78;1.65;;;;;;;;;;5043159;28;20193;-68
2023/04/26 09:37:53;;;;;;;6.30;1.58;;;;;;;;;;5043190;28;20182;-69
2023/04/26 09:40:23;;;;;;;2.42;1.15;;;;;;;;;;5042971;28;20570;-69
2023/04/26 09:43:03;;;;;;;5.40;1.98;;;;;;;;;;5046974;28;20260;-69
2023/04/26 09:45:30;;;;;;;7.03;1.63;;;;;;;;;;5042241;28;20237;-68
2023/04/26 09:48:13;;;;;;;9.38;1.85;;;;;;;;;;5041150;28;20189;-67
2023/04/26 09:50:39;;;;;;;8.60;1.10;;;;;;;;;;5038718;28;20533;-67
2023/04/26 09:53:04;;;;;;;4.30;1.23;;;;;;;;;;5031934;28;20259;-69
2023/04/26 09:55:30;;;;;;;3.15;1.33;;;;;;;;;;5047752;28;20660;-69
2023/04/26 09:57:59;;;;;;;5.07;1.27;;;;;;;;;;5038325;28;20657;-69
2023/04/26 10:00:27;;;;;;;7.22;1.75;;;;;;;;;;5043867;28;20212;-68
2023/04/26 10:02:54;;;;;;;4.82;1.65;;;;;;;;;;5048372;28;20387;-68
2023/04/26 10:05:21;;;;;;;4.00;1.13;;;;;;;;;;5049868;28;20220;-69
2023/04/26 10:07:47;;;;;;;6.38;1.52;;;;;;;;;;5039687;28;20189;-70
2023/04/26 10:10:15;;;;;;;3.03;0.85;;;;;;;;;;5053396;28;20273;-68
2023/04/26 10:12:43;;;;;;;5.35;1.40;;;;;;;;;;5047046;28;20209;-68
2023/04/26 10:15:10;;;;;;;5.93;0.95;;;;;;;;;;5050632;28;20208;-69
2023/04/26 10:17:36;;;;;;;5.00;0.95;;;;;;;;;;5047222;28;20203;-68
2023/04/26 10:20:05;;;;;;;4.13;1.05;;;;;;;;;;5046014;28;20196;-69
2023/04/26 10:22:35;;;;;;;2.60;0.75;;;;;;;;;;5045923;28;20177;-70
2023/04/26 10:25:01;;;;;;;6.65;1.00;;;;;;;;;;5044917;28;20233;-69
2023/04/26 10:27:42;;;;;;;2.13;0.80;;;;;;;;;;5039136;28;20213;-69
2023/04/26 10:30:08;;;;;;;4.28;0.90;;;;;;;;;;5042910;28;20862;-70
2023/04/26 10:32:54;;;;;;;4.43;1.10;;;;;;;;;;5037418;28;20272;-70
2023/04/26 10:35:20;;;;;;;5.85;1.20;;;;;;;;;;5037560;28;20244;-69
2023/04/26 10:38:00;;;;;;;4.95;1.27;;;;;;;;;;5034634;28;20220;-70
2023/04/26 10:40:41;;;;;;;5.10;1.00;;;;;;;;;;5043132;28;20221;-69
2023/04/26 10:43:13;;;;;;;3.00;0.82;;;;;;;;;;5040075;28;20221;-70
2023/04/26 10:45:40;;;;;;;6.50;1.20;;;;;;;;;;5046202;28;20629;-70
2023/04/26 10:48:21;;;;;;;3.50;1.33;;;;;;;;;;5032967;28;20178;-69
2023/04/26 10:51:04;;;;;;;4.35;1.00;;;;;;;;;;5046065;28;20218;-70
2023/04/26 10:53:31;;;;;;;2.63;0.98;;;;;;;;;;5034478;28;20194;-69
2023/04/26 10:55:57;;;;;;;4.55;1.15;;;;;;;;;;5041009;28;20182;-69
2023/04/26 10:58:28;;;;;;;4.50;1.00;;;;;;;;;;5046682;28;20190;-68
2023/04/26 11:01:19;;;;;;;6.03;1.00;;;;;;;;;;5043082;28;20206;-69
2023/04/26 11:03:57;;;;;;;7.30;1.17;;;;;;;;;;5047052;28;20180;-69
2023/04/26 11:06:25;;;;;;;3.00;1.02;;;;;;;;;;5042110;28;20201;-68
2023/04/26 11:08:52;;;;;;;3.95;1.20;;;;;;;;;;5038467;28;20268;-69
2023/04/26 11:11:21;;;;;;;3.95;1.08;;;;;;;;;;5040327;28;20195;-69
2023/04/26 11:13:46;;;;;;;1.33;0.77;;;;;;;;;;5033483;28;20711;-69
2023/04/26 11:16:13;;;;;;;5.47;1.05;;;;;;;;;;5048164;28;20198;-68
2023/04/26 11:18:43;;;;;;;4.22;1.25;;;;;;;;;;5033874;28;20182;-69
2023/04/26 11:21:11;;;;;;;4.07;1.20;;;;;;;;;;5045602;28;20291;-70
2023/04/26 11:23:36;;;;;;;3.83;0.93;;;;;;;;;;5057612;28;20447;-69
2023/04/26 11:26:07;;;;;;;6.10;1.40;;;;;;;;;;5033782;28;20217;-70
2023/04/26 11:28:34;;;;;;;2.97;1.20;;;;;;;;;;5040554;28;20538;-70
2023/04/26 11:31:00;;;;;;;5.03;1.00;;;;;;;;;;5043178;28;20177;-70
2023/04/26 11:33:26;;;;;;;7.03;1.38;;;;;;;;;;5050667;28;20247;-70
2023/04/26 11:35:54;;;;;;;5.22;1.35;;;;;;;;;;5048745;28;20573;-70
2023/04/26 11:38:27;;;;;;;3.10;1.10;;;;;;;;;;5048204;28;20264;-71
2023/04/26 11:41:00;;;;;;;3.03;1.10;;;;;;;;;;5040356;28;20190;-70
2023/04/26 11:43:35;;;;;;;8.75;1.83;;;;;;;;;;5046970;28;20565;-69
2023/04/26 11:46:02;;;;;;;5.28;1.10;;;;;;;;;;5045767;28;20266;-69
2023/04/26 11:48:29;;;;;;;4.03;1.15;;;;;;;;;;5039672;28;20183;-70
2023/04/26 11:50:57;;;;;;;3.25;1.00;;;;;;;;;;5050012;28;20190;-70
2023/04/26 11:53:23;;;;;;;6.60;1.40;;;;;;;;;;5045174;28;20190;-70
2023/04/26 11:55:49;;;;;;;2.20;1.20;;;;;;;;;;5035753;28;20240;-69
2023/04/26 11:58:15;;;;;;;6.63;1.65;;;;;;;;;;5044204;28;20194;-70
2023/04/26 12:01:03;;;;;;;3.53;1.20;;;;;;;;;;5039871;28;20260;-68
2023/04/26 12:03:36;;;;;;;7.47;1.67;;;;;;;;;;5042848;28;20214;-70
2023/04/26 12:06:02;;;;;;;4.70;1.52;;;;;;;;;;5045713;28;20791;-69
2023/04/26 12:08:28;;;;;;;6.40;1.30;;;;;;;;;;5049815;28;20189;-71
2023/04/26 12:10:58;;;;;;;4.65;1.30;;;;;;;;;;5047527;28;20276;-70
2023/04/26 12:13:24;;;;;;;4.75;1.58;;;;;;;;;;5042147;28;20264;-70
2023/04/26 12:15:51;;;;;;;3.60;1.52;;;;;;;;;;5046969;28;20200;-68
2023/04/26 12:18:17;;;;;;;3.85;1.40;;;;;;;;;;5032672;28;20553;-68
2023/04/26 12:20:44;;;;;;;5.47;1.52;;;;;;;;;;5047293;28;20205;-69
2023/04/26 12:23:13;;;;;;;4.13;1.48;;;;;;;;;;5041492;28;20178;-67
2023/04/26 12:25:40;;;;;;;3.80;1.60;;;;;;;;;;5040473;28;20213;-70
2023/04/26 12:28:11;;;;;;;4.00;1.48;;;;;;;;;;5037197;28;20181;-68
2023/04/26 12:30:37;;;;;;;4.65;1.50;;;;;;;;;;5048517;28;20189;-69
2023/04/26 12:33:03;;;;;;;4.80;1.80;;;;;;;;;;5045651;28;20578;-68
2023/04/26 12:35:30;;;;;;;9.05;2.13;;;;;;;;;;5048386;28;20602;-69
2023/04/26 12:37:55;;;;;;;6.68;1.70;;;;;;;;;;5047182;28;20268;-69
2023/04/26 12:40:22;;;;;;;4.07;1.60;;;;;;;;;;5049100;28;20264;-68
2023/04/26 12:42:49;;;;;;;6.28;1.50;;;;;;;;;;5035806;28;20193;-68
2023/04/26 12:45:17;;;;;;;5.20;1.70;;;;;;;;;;5040238;28;20226;-69
2023/04/26 12:47:46;;;;;;;5.85;1.35;;;;;;;;;;5036053;28;20198;-68
2023/04/26 12:50:12;;;;;;;5.72;1.55;;;;;;;;;;5042341;28;20186;-69
2023/04/26 12:52:39;;;;;;;6.00;1.60;;;;;;;;;;5029376;28;20521;-68
2023/04/26 12:55:07;;;;;;;4.60;1.67;;;;;;;;;;5042356;28;20561;-68
2023/04/26 12:57:33;;;;;;;3.95;1.25;;;;;;;;;;5037224;28;20198;-70
2023/04/26 12:59:58;;;;;;;3.90;1.88;;;;;;;;;;5034435;28;20177;-69
2023/04/26 13:02:24;;;;;;;5.35;1.92;;;;;;;;;;5037164;28;20189;-69
2023/04/26 13:04:49;;;;;;;5.30;1.65;;;;;;;;;;5048559;28;20200;-69
2023/04/26 13:07:15;;;;;;;9.65;1.98;;;;;;;;;;5034895;28;20744;-69
2023/04/26 13:09:40;;;;;;;2.55;1.00;;;;;;;;;;5048514;28;20197;-69
2023/04/26 13:12:06;;;;;;;2.58;1.20;;;;;;;;;;5047252;28;20300;-69
2023/04/26 13:14:31;;;;;;;5.15;1.33;;;;;;;;;;5045764;28;20248;-70
2023/04/26 13:16:56;;;;;;;4.65;1.20;;;;;;;;;;5036218;28;20547;-69
2023/04/26 13:19:22;;;;;;;3.45;1.10;;;;;;;;;;5042643;28;20501;-69
2023/04/26 13:21:48;;;;;;;5.18;1.35;;;;;;;;;;5046409;28;20649;-68
2023/04/26 13:24:13;;;;;;;3.97;1.50;;;;;;;;;;5039752;28;20276;-68
2023/04/26 13:26:38;;;;;;;6.57;1.77;;;;;;;;;;5045732;28;20197;-68
2023/04/26 13:29:04;;;;;;;5.32;1.60;;;;;;;;;;5047263;28;20259;-68
2023/04/26 13:31:29;;;;;;;8.35;1.63;;;;;;;;;;5046967;28;20189;-69
2023/04/26 13:33:55;;;;;;;2.17;1.23;;;;;;;;;;5056036;28;20691;-68
2023/04/26 13:36:21;;;;;;;4.55;1.40;;;;;;;;;;5043345;28;20189;-69
2023/04/26 13:38:46;;;;;;;5.60;1.35;;;;;;;;;;5048017;28;20196;-69
2023/04/26 13:41:11;;;;;;;3.20;1.42;;;;;;;;;;5043105;28;20347;-69
2023/04/26 13:43:37;;;;;;;4.93;1.52;;;;;;;;;;5028778;28;20265;-68
2023/04/26 13:46:02;;;;;;;4.03;1.83;;;;;;;;;;5028161;28;20244;-69
2023/04/26 13:48:28;;;;;;;8.73;2.00;;;;;;;;;;5047578;28;20185;-67
2023/04/26 13:50:55;;;;;;;4.60;2.03;;;;;;;;;;5045603;28;20204;-69
2023/04/26 13:53:20;;;;;;;6.20;2.03;;;;;;;;;;5042542;28;20186;-69
2023/04/26 13:55:46;;;;;;;3.67;1.73;;;;;;;;;;5040442;28;20189;-69
2023/04/26 13:58:12;;;;;;;4.30;2.05;;;;;;;;;;5028686;28;20548;-68
2023/04/26 14:00:37;;;;;;;4.00;1.67;;;;;;;;;;5030192;28;20327;-68
2023/04/26 14:03:02;;;;;;;4.43;1.70;;;;;;;;;;5037369;28;20201;-69
2023/04/26 14:05:28;;;;;;;8.85;2.05;;;;;;;;;;5033061;28;20221;-69
2023/04/26 14:07:53;;;;;;;3.08;1.50;;;;;;;;;;5036474;28;20185;-68
2023/04/26 14:10:19;;;;;;;6.20;2.00;;;;;;;;;;5040000;28;20271;-68
2023/04/26 14:12:45;;;;;;;6.10;2.00;;;;;;;;;;5035620;28;20204;-69
2023/04/26 14:15:11;;;;;;;4.13;1.90;;;;;;;;;;5037255;28;20213;-68
2023/04/26 14:17:36;;;;;;;6.30;1.92;;;;;;;;;;5036997;28;20546;-69
2023/04/26 14:20:02;;;;;;;5.13;1.60;;;;;;;;;;5040341;28;20219;-70
2023/04/26 14:22:27;;;;;;;3.72;1.58;;;;;;;;;;5033501;28;20618;-70
2023/04/26 14:24:52;;;;;;;4.18;1.50;;;;;;;;;;5044126;28;20212;-69
2023/04/26 14:27:18;;;;;;;4.07;1.73;;;;;;;;;;5049156;28;20293;-69
2023/04/26 14:29:43;;;;;;;4.55;1.73;;;;;;;;;;5043378;28;20235;-69
2023/04/26 14:32:09;;;;;;;4.15;2.05;;;;;;;;;;5055501;28;20199;-69
2023/04/26 14:34:38;;;;;;;3.95;1.85;;;;;;;;;;5039952;28;20196;-67
2023/04/26 14:37:04;;;;;;;4.03;1.50;;;;;;;;;;5037391;28;20669;-68